createdAt,value
2024-03-16T00:01:45.026Z,37.10
2024-03-16T00:04:12.340Z,37.20
2024-03-16T00:06:39.647Z,36.50
2024-03-16T00:09:07.342Z,40.90
2024-03-16T00:11:34.640Z,38.60
2024-03-16T00:14:02.084Z,38.70
2024-03-16T00:16:31.626Z,41.90
2024-03-16T00:18:59.121Z,42.30
2024-03-16T00:21:27.551Z,46.10
2024-03-16T00:23:54.876Z,44.30
2024-03-16T00:26:23.084Z,41.30
2024-03-16T00:28:52.258Z,49.30
2024-03-16T00:31:19.841Z,45.00
2024-03-16T00:33:47.921Z,44.00
2024-03-16T00:36:16.409Z,45.20
2024-03-16T00:38:45.209Z,42.50
2024-03-16T00:41:12.552Z,42.80
2024-03-16T00:43:39.889Z,43.90
2024-03-16T00:46:07.334Z,46.10
2024-03-16T00:48:34.699Z,50.00
2024-03-16T00:51:02.251Z,42.60
2024-03-16T00:53:29.576Z,44.10
2024-03-16T00:55:57.137Z,45.90
2024-03-16T00:58:24.401Z,44.90
2024-03-16T01:00:53.146Z,44.10
2024-03-16T01:03:20.606Z,47.70
2024-03-16T01:05:52.154Z,49.50
2024-03-16T01:08:19.607Z,48.20
2024-03-16T01:10:46.937Z,42.00
2024-03-16T01:13:14.366Z,43.40
2024-03-16T01:15:41.865Z,50.30
2024-03-16T01:18:09.207Z,50.00
2024-03-16T01:20:36.518Z,49.10
2024-03-16T01:23:06.094Z,46.60
2024-03-16T01:25:33.419Z,47.00
2024-03-16T01:28:00.664Z,49.80
2024-03-16T01:30:28.080Z,50.50
2024-03-16T01:32:55.380Z,45.00
2024-03-16T01:35:23.469Z,48.00
2024-03-16T01:37:52.041Z,38.90
2024-03-16T01:40:25.742Z,48.10
2024-03-16T01:42:53.892Z,46.90
2024-03-16T01:45:21.282Z,43.50
2024-03-16T01:47:48.713Z,44.20
2024-03-16T01:50:19.920Z,39.60
2024-03-16T01:52:48.010Z,45.40
2024-03-16T01:55:15.847Z,46.20
2024-03-16T01:57:43.280Z,42.60
2024-03-16T02:00:12.858Z,44.40
2024-03-16T02:02:40.850Z,46.30
2024-03-16T02:05:08.825Z,41.30
2024-03-16T02:07:38.342Z,43.10
2024-03-16T02:10:10.266Z,39.80
2024-03-16T02:12:38.161Z,43.60
2024-03-16T02:15:06.110Z,42.90
2024-03-16T02:17:33.929Z,39.40
2024-03-16T02:20:01.668Z,45.20
2024-03-16T02:22:28.987Z,44.00
2024-03-16T02:24:57.152Z,44.10
2024-03-16T02:27:26.114Z,45.50
2024-03-16T02:29:53.479Z,42.80
2024-03-16T02:32:24.832Z,48.90
2024-03-16T02:34:52.223Z,39.50
2024-03-16T02:37:20.322Z,40.30
2024-03-16T02:39:47.633Z,44.60
2024-03-16T02:42:15.024Z,40.20
2024-03-16T02:44:42.497Z,43.70
2024-03-16T02:47:11.497Z,45.30
2024-03-16T02:49:38.990Z,42.00
2024-03-16T02:52:06.373Z,46.70
2024-03-16T02:54:34.581Z,40.10
2024-03-16T02:57:01.988Z,43.60
2024-03-16T02:59:31.022Z,42.10
2024-03-16T03:01:58.547Z,47.50
2024-03-16T03:04:25.882Z,44.40
2024-03-16T03:06:53.277Z,45.90
2024-03-16T03:09:21.473Z,38.80
2024-03-16T03:11:49.209Z,45.40
2024-03-16T03:14:16.515Z,47.50
2024-03-16T03:16:43.776Z,48.20
2024-03-16T03:19:12.096Z,50.40
2024-03-16T03:21:39.372Z,42.10
2024-03-16T03:24:06.697Z,45.70
2024-03-16T03:26:35.052Z,43.20
2024-03-16T03:29:02.710Z,40.10
2024-03-16T03:31:30.041Z,46.10
2024-03-16T03:33:57.436Z,43.60
2024-03-16T03:36:25.073Z,45.40
2024-03-16T03:38:52.546Z,45.80
2024-03-16T03:41:19.929Z,44.20
2024-03-16T03:43:58.878Z,44.50
2024-03-16T03:46:51.877Z,38.40
2024-03-16T03:49:36.450Z,41.20
2024-03-16T03:52:05.766Z,45.60
2024-03-16T03:54:34.787Z,38.90
2024-03-16T03:57:02.320Z,47.50
2024-03-16T03:59:29.554Z,46.40
2024-03-16T04:01:56.932Z,45.50
2024-03-16T04:04:24.554Z,47.70
2024-03-16T04:06:51.855Z,42.60
2024-03-16T04:09:19.184Z,41.00
2024-03-16T04:11:46.375Z,47.10
2024-03-16T04:14:13.693Z,43.50
2024-03-16T04:16:40.909Z,41.70
2024-03-16T04:19:08.201Z,38.60
2024-03-16T04:21:35.639Z,41.20
2024-03-16T04:24:03.013Z,40.90
2024-03-16T04:26:30.254Z,39.40
2024-03-16T04:28:57.501Z,44.30
2024-03-16T04:31:24.782Z,43.70
2024-03-16T04:33:54.891Z,40.80
2024-03-16T04:36:24.117Z,39.60
2024-03-16T04:38:51.549Z,42.60
2024-03-16T04:41:20.552Z,37.90
2024-03-16T04:43:48.457Z,40.60
2024-03-16T04:46:16.085Z,43.60
2024-03-16T04:48:43.712Z,40.70
2024-03-16T04:51:10.989Z,40.60
2024-03-16T04:53:38.318Z,39.30
2024-03-16T04:56:05.797Z,40.90
2024-03-16T04:58:34.527Z,37.90
2024-03-16T05:01:02.105Z,43.40
2024-03-16T05:03:29.885Z,37.90
2024-03-16T05:05:57.553Z,39.30
2024-03-16T05:08:26.782Z,40.50
2024-03-16T05:10:54.147Z,38.80
2024-03-16T05:13:21.494Z,36.60
2024-03-16T05:15:49.688Z,37.80
2024-03-16T05:18:17.291Z,39.10
2024-03-16T05:20:45.557Z,34.80
2024-03-16T05:23:16.383Z,37.20
2024-03-16T05:25:47.166Z,35.70
2024-03-16T05:28:14.430Z,37.80
2024-03-16T05:30:41.770Z,37.10
2024-03-16T05:33:09.119Z,36.20
2024-03-16T05:35:37.451Z,38.20
2024-03-16T05:38:05.471Z,39.30
2024-03-16T05:40:32.773Z,37.30
2024-03-16T05:43:00.051Z,34.20
2024-03-16T05:45:27.553Z,34.10
2024-03-16T05:47:54.799Z,36.40
2024-03-16T05:50:22.300Z,32.40
2024-03-16T05:52:49.690Z,33.10
2024-03-16T05:55:17.126Z,30.40
2024-03-16T05:57:44.945Z,34.00
2024-03-16T06:00:15.876Z,30.20
2024-03-16T06:05:11.164Z,28.50
2024-03-16T06:07:38.631Z,29.50
2024-03-16T06:10:10.781Z,27.30
2024-03-16T06:12:38.796Z,26.50
2024-03-16T06:15:09.984Z,28.00
2024-03-16T06:17:37.432Z,22.70
2024-03-16T06:20:06.612Z,23.10
2024-03-16T06:22:33.937Z,23.60
2024-03-16T06:25:01.229Z,25.20
2024-03-16T06:27:28.894Z,24.60
2024-03-16T06:29:58.536Z,24.50
2024-03-16T06:32:25.890Z,25.50
2024-03-16T06:34:54.557Z,24.30
2024-03-16T06:37:21.918Z,24.70
2024-03-16T06:39:49.207Z,23.00
2024-03-16T06:42:16.985Z,21.90
2024-03-16T06:44:44.233Z,22.40
2024-03-16T06:47:11.486Z,20.40
2024-03-16T06:49:38.797Z,19.00
2024-03-16T06:52:06.254Z,19.80
2024-03-16T06:54:33.950Z,17.10
2024-03-16T06:57:01.242Z,17.50
2024-03-16T06:59:28.810Z,18.10
2024-03-16T07:01:56.162Z,16.50
2024-03-16T07:04:23.546Z,16.50
2024-03-16T07:06:50.946Z,14.90
2024-03-16T07:09:19.819Z,14.70
2024-03-16T07:11:48.698Z,13.50
2024-03-16T07:14:16.415Z,12.90
2024-03-16T07:16:43.706Z,13.60
2024-03-16T07:19:11.165Z,13.20
2024-03-16T07:21:38.910Z,12.80
2024-03-16T07:24:06.711Z,12.60
2024-03-16T07:26:34.044Z,10.90
2024-03-16T07:29:01.398Z,12.60
2024-03-16T07:31:28.885Z,14.30
2024-03-16T07:33:57.556Z,13.20
2024-03-16T07:36:25.921Z,13.50
2024-03-16T07:38:54.672Z,12.80
2024-03-16T07:41:21.906Z,13.00
2024-03-16T07:43:49.316Z,13.30
2024-03-16T07:46:16.785Z,13.60
2024-03-16T07:48:44.210Z,13.30
2024-03-16T07:51:14.028Z,14.60
2024-03-16T07:53:42.219Z,14.60
2024-03-16T07:56:12.576Z,14.20
2024-03-16T07:58:39.967Z,14.90
2024-03-16T08:01:10.327Z,16.50
2024-03-16T08:03:37.994Z,13.90
2024-03-16T08:06:08.302Z,15.70
2024-03-16T08:08:35.796Z,16.20
2024-03-16T08:11:05.256Z,17.20
2024-03-16T08:13:32.865Z,15.50
2024-03-16T08:16:00.684Z,18.10
2024-03-16T08:18:28.210Z,15.30
2024-03-16T08:20:58.976Z,15.90
2024-03-16T08:23:26.316Z,15.90
2024-03-16T08:25:53.632Z,15.10
2024-03-16T08:28:21.217Z,14.90
2024-03-16T08:30:48.690Z,14.90
2024-03-16T08:33:16.083Z,14.90
2024-03-16T08:35:43.668Z,14.70
2024-03-16T08:38:10.990Z,17.40
2024-03-16T08:40:38.330Z,15.20
2024-03-16T08:43:05.797Z,15.30
2024-03-16T08:45:34.360Z,15.90
2024-03-16T08:48:02.746Z,15.60
2024-03-16T08:50:29.978Z,16.80
2024-03-16T08:52:57.330Z,16.80
2024-03-16T08:55:25.702Z,19.90
2024-03-16T08:57:53.205Z,18.40
2024-03-16T09:00:20.428Z,18.60
2024-03-16T09:02:47.707Z,18.90
2024-03-16T09:05:15.122Z,18.30
2024-03-16T09:07:42.463Z,21.30
2024-03-16T09:10:12.377Z,21.90
2024-03-16T09:12:40.144Z,21.90
2024-03-16T09:15:07.931Z,21.10
2024-03-16T09:17:35.811Z,20.10
2024-03-16T09:20:08.399Z,21.70
2024-03-16T09:22:38.823Z,21.80
2024-03-16T09:25:07.356Z,24.80
2024-03-16T09:27:36.112Z,24.70
2024-03-16T09:30:07.273Z,24.00
2024-03-16T09:32:35.142Z,23.80
2024-03-16T09:35:02.706Z,21.40
2024-03-16T09:37:30.129Z,24.30
2024-03-16T09:39:58.469Z,24.60
2024-03-16T09:42:25.940Z,23.50
2024-03-16T09:44:53.595Z,24.80
2024-03-16T09:47:24.955Z,25.30
2024-03-16T09:49:52.230Z,23.10
2024-03-16T09:52:28.232Z,23.90
2024-03-16T09:54:55.874Z,21.50
2024-03-16T09:57:23.333Z,23.10
2024-03-16T09:59:50.743Z,24.20
2024-03-16T10:02:21.067Z,24.20
2024-03-16T10:04:49.339Z,23.60
2024-03-16T10:07:16.946Z,23.80
2024-03-16T10:09:54.223Z,22.50
2024-03-16T10:12:22.533Z,24.40
2024-03-16T10:15:20.033Z,23.40
2024-03-16T10:17:47.928Z,21.60
2024-03-16T10:20:18.017Z,22.70
2024-03-16T10:22:49.498Z,23.70
2024-03-16T10:25:17.238Z,20.80
2024-03-16T10:27:45.407Z,23.00
2024-03-16T10:30:16.638Z,18.70
2024-03-16T10:32:50.653Z,22.40
2024-03-16T10:35:26.195Z,20.80
2024-03-16T10:37:53.928Z,20.20
2024-03-16T10:40:22.949Z,21.90
2024-03-16T10:42:54.724Z,21.00
2024-03-16T10:45:22.092Z,20.20
2024-03-16T10:47:54.193Z,21.80
2024-03-16T10:50:22.261Z,20.10
2024-03-16T10:52:50.851Z,18.30
2024-03-16T10:55:30.435Z,18.10
2024-03-16T10:57:57.732Z,18.80
2024-03-16T11:00:38.929Z,18.90
2024-03-16T11:03:10.299Z,19.00
2024-03-16T11:05:38.580Z,18.50
2024-03-16T11:09:20.617Z,19.10
2024-03-16T11:11:47.280Z,21.20
2024-03-16T11:14:14.064Z,21.60
2024-03-16T11:16:52.682Z,21.00
2024-03-16T11:19:23.313Z,19.70
2024-03-16T11:21:54.110Z,18.90
2024-03-16T11:24:21.472Z,19.10
2024-03-16T11:26:50.387Z,20.00
2024-03-16T11:29:19.169Z,19.70
2024-03-16T11:31:49.684Z,19.90
2024-03-16T11:34:16.884Z,18.00
2024-03-16T11:36:56.947Z,21.60
2024-03-16T11:39:31.129Z,19.70
2024-03-16T11:41:59.339Z,20.40
2024-03-16T11:44:26.099Z,19.50
2024-03-16T11:46:55.401Z,19.60
2024-03-16T11:49:22.018Z,17.40
2024-03-16T11:51:49.421Z,18.50
2024-03-16T11:54:16.664Z,19.30
2024-03-16T11:56:43.762Z,18.10
2024-03-16T11:59:19.050Z,19.50
2024-03-16T12:01:50.249Z,18.70
2024-03-16T12:06:46.842Z,17.80
2024-03-16T12:09:18.123Z,19.00
2024-03-16T12:11:50.596Z,19.10
2024-03-16T12:14:22.862Z,20.10
2024-03-16T12:16:53.059Z,19.10
2024-03-16T12:19:20.219Z,19.10
2024-03-16T12:21:48.744Z,17.80
2024-03-16T12:24:18.738Z,17.20
2024-03-16T12:26:46.414Z,18.80
2024-03-16T12:29:20.260Z,18.20
2024-03-16T12:31:55.297Z,19.70
2024-03-16T12:34:22.434Z,19.40
2024-03-16T12:36:50.269Z,19.30
2024-03-16T12:39:16.930Z,17.90
2024-03-16T12:41:44.248Z,16.40
2024-03-16T12:44:11.482Z,19.00
2024-03-16T12:46:40.042Z,15.90
2024-03-16T12:49:06.854Z,17.70
2024-03-16T12:51:36.430Z,19.30
2024-03-16T12:54:03.133Z,18.90
2024-03-16T12:56:29.946Z,18.20
2024-03-16T12:58:56.582Z,18.10
2024-03-16T13:01:25.844Z,18.20
2024-03-16T13:03:52.421Z,19.40
2024-03-16T13:06:24.334Z,16.90
2024-03-16T13:11:18.242Z,17.60
2024-03-16T13:13:45.053Z,17.60
2024-03-16T13:16:12.574Z,16.20
2024-03-16T13:18:39.990Z,16.60
2024-03-16T13:21:08.290Z,16.50
2024-03-16T13:23:34.910Z,25.40
2024-03-16T13:26:01.511Z,22.60
2024-03-16T13:28:28.513Z,19.80
2024-03-16T13:30:57.982Z,19.20
2024-03-16T13:33:24.803Z,20.40
2024-03-16T13:35:54.539Z,19.60
2024-03-16T13:38:21.227Z,18.60
2024-03-16T13:40:48.065Z,21.10
2024-03-16T13:43:16.427Z,20.00
2024-03-16T13:45:47.103Z,19.50
2024-03-16T13:48:13.751Z,20.10
2024-03-16T13:50:40.706Z,18.10
2024-03-16T13:53:07.542Z,19.20
2024-03-16T13:55:34.492Z,22.20
2024-03-16T13:58:01.115Z,21.00
2024-03-16T14:00:27.990Z,23.10
2024-03-16T14:02:54.958Z,21.70
2024-03-16T14:05:21.903Z,20.70
2024-03-16T14:07:48.504Z,21.30
2024-03-16T14:10:18.535Z,24.40
2024-03-16T14:12:49.362Z,29.40
2024-03-16T14:15:17.610Z,27.80
2024-03-16T14:17:44.276Z,21.90
2024-03-16T14:20:17.757Z,22.40
2024-03-16T14:22:50.979Z,20.40
2024-03-16T14:25:18.421Z,20.10
2024-03-16T14:27:47.021Z,23.90
2024-03-16T14:30:15.761Z,19.10
2024-03-16T14:32:47.056Z,22.00
2024-03-16T14:35:14.937Z,19.50
2024-03-16T14:37:41.916Z,18.80
2024-03-16T14:40:14.034Z,19.60
2024-03-16T14:42:41.582Z,19.90
2024-03-16T14:45:11.245Z,21.60
2024-03-16T14:47:37.967Z,27.40
2024-03-16T14:50:07.231Z,21.10
2024-03-16T14:52:35.679Z,23.30
2024-03-16T14:55:02.823Z,22.90
2024-03-16T14:57:29.988Z,20.50
2024-03-16T14:59:57.237Z,25.80
2024-03-16T15:02:23.861Z,25.80
2024-03-16T15:04:50.492Z,24.30
2024-03-16T15:07:17.027Z,20.80
2024-03-16T15:09:43.681Z,23.20
2024-03-16T15:12:10.282Z,23.30
2024-03-16T15:14:36.964Z,19.40
2024-03-16T15:17:03.657Z,18.70
2024-03-16T15:19:30.514Z,19.50
2024-03-16T15:21:57.239Z,23.60
2024-03-16T15:24:23.868Z,25.30
2024-03-16T15:27:09.021Z,21.70
2024-03-16T15:29:37.228Z,20.20
2024-03-16T15:32:06.938Z,21.00
2024-03-16T15:34:34.221Z,19.90
2024-03-16T15:37:00.800Z,20.00
2024-03-16T15:39:27.525Z,19.40
2024-03-16T15:41:54.540Z,16.00
2024-03-16T15:44:21.958Z,16.70
2024-03-16T15:46:48.587Z,16.10
2024-03-16T15:49:15.848Z,18.20
2024-03-16T15:51:42.987Z,19.50
2024-03-16T15:54:09.621Z,19.00
2024-03-16T15:56:37.056Z,21.00
2024-03-16T15:59:04.821Z,23.30
2024-03-16T16:01:31.433Z,22.30
2024-03-16T16:03:58.030Z,30.60
2024-03-16T16:06:25.354Z,24.40
2024-03-16T16:08:52.033Z,27.70
2024-03-16T16:11:18.638Z,27.90
2024-03-16T16:13:45.268Z,28.30
2024-03-16T16:16:11.910Z,26.60
2024-03-16T16:18:41.524Z,26.00
2024-03-16T16:21:08.604Z,23.90
2024-03-16T16:23:35.266Z,29.00
2024-03-16T16:26:01.917Z,27.30
2024-03-16T16:28:28.762Z,29.60
2024-03-16T16:30:55.308Z,36.50
2024-03-16T16:33:22.506Z,35.50
2024-03-16T16:35:52.261Z,26.20
2024-03-16T16:38:18.938Z,33.30
2024-03-16T16:40:48.792Z,37.70
2024-03-16T16:43:15.910Z,32.90
2024-03-16T16:45:42.585Z,26.20
2024-03-16T16:48:09.328Z,29.00
2024-03-16T16:50:36.185Z,29.00
2024-03-16T16:53:03.749Z,30.40
2024-03-16T16:55:35.837Z,28.50
2024-03-16T16:58:03.864Z,27.30
2024-03-16T17:00:31.235Z,31.10
2024-03-16T17:02:57.879Z,34.70
2024-03-16T17:05:24.734Z,26.80
2024-03-16T17:07:51.575Z,25.10
2024-03-16T17:10:18.310Z,27.20
2024-03-16T17:12:47.146Z,25.80
2024-03-16T17:15:15.829Z,29.10
2024-03-16T17:17:42.720Z,26.70
2024-03-16T17:20:18.184Z,34.90
2024-03-16T17:22:45.309Z,27.80
2024-03-16T17:25:12.004Z,29.70
2024-03-16T17:27:38.658Z,30.40
2024-03-16T17:30:07.193Z,31.10
2024-03-16T17:32:34.225Z,34.30
2024-03-16T17:35:00.884Z,32.80
2024-03-16T17:37:27.610Z,30.10
2024-03-16T17:39:54.362Z,28.00
2024-03-16T17:42:20.996Z,26.70
2024-03-16T17:44:50.565Z,29.50
2024-03-16T17:47:17.325Z,27.90
2024-03-16T17:49:44.053Z,28.00
2024-03-16T17:52:10.667Z,31.00
2024-03-16T17:54:37.352Z,26.60
2024-03-16T17:57:05.736Z,25.70
2024-03-16T17:59:32.691Z,26.40
2024-03-16T18:02:04.496Z,24.60
2024-03-16T18:04:31.495Z,25.70
2024-03-16T18:06:58.687Z,22.50
2024-03-16T18:09:25.316Z,23.40
2024-03-16T18:11:51.889Z,25.90
2024-03-16T18:14:18.554Z,19.90
2024-03-16T18:16:45.601Z,23.80
2024-03-16T18:19:12.512Z,22.10
2024-03-16T18:21:39.212Z,24.20
2024-03-16T18:24:05.988Z,22.30
2024-03-16T18:26:32.669Z,25.40
2024-03-16T18:29:00.483Z,23.40
2024-03-16T18:31:27.933Z,24.60
2024-03-16T18:33:55.040Z,24.30
2024-03-16T18:36:26.722Z,24.60
2024-03-16T18:38:53.385Z,25.60
2024-03-16T18:41:20.911Z,24.00
2024-03-16T18:43:55.809Z,26.20
2024-03-16T18:46:24.532Z,23.10
2024-03-16T18:48:52.090Z,26.00
2024-03-16T18:51:18.671Z,26.60
2024-03-16T18:53:45.938Z,23.20
2024-03-16T18:56:12.943Z,20.70
2024-03-16T18:58:39.638Z,20.40
2024-03-16T19:01:08.835Z,21.30
2024-03-16T19:03:35.606Z,22.80
2024-03-16T19:06:02.261Z,20.80
2024-03-16T19:08:30.073Z,21.10
2024-03-16T19:10:57.139Z,22.80
2024-03-16T19:13:26.538Z,22.10
2024-03-16T19:15:54.511Z,22.20
2024-03-16T19:18:21.631Z,19.90
2024-03-16T19:20:48.260Z,24.80
2024-03-16T19:23:16.373Z,22.70
2024-03-16T19:25:43.111Z,23.40
2024-03-16T19:28:09.835Z,26.10
2024-03-16T19:30:36.899Z,22.80
2024-03-16T19:33:06.212Z,23.80
2024-03-16T19:35:33.191Z,24.30
2024-03-16T19:38:00.110Z,23.50
2024-03-16T19:40:26.733Z,23.20
2024-03-16T19:42:58.332Z,26.40
2024-03-16T19:45:25.021Z,23.70
2024-03-16T19:47:51.764Z,25.20
2024-03-16T19:50:21.405Z,24.80
2024-03-16T19:52:48.829Z,25.30
2024-03-16T19:55:15.877Z,26.20
2024-03-16T19:57:43.303Z,22.70
2024-03-16T20:00:19.590Z,24.80
2024-03-16T20:02:47.648Z,24.80
2024-03-16T20:05:14.956Z,23.30
2024-03-16T20:07:41.734Z,26.00
2024-03-16T20:10:09.237Z,20.80
2024-03-16T20:12:36.667Z,26.10
2024-03-16T20:15:04.919Z,22.70
2024-03-16T20:17:32.697Z,21.80
2024-03-16T20:20:06.298Z,24.60
2024-03-16T20:22:33.535Z,22.90
2024-03-16T20:25:02.746Z,23.30
2024-03-16T20:27:31.126Z,22.40
2024-03-16T20:29:57.765Z,20.70
2024-03-16T20:32:24.359Z,21.20
2024-03-16T20:34:51.267Z,24.00
2024-03-16T20:37:18.131Z,24.10
2024-03-16T20:39:45.135Z,24.30
2024-03-16T20:42:12.435Z,24.90
2024-03-16T20:44:39.409Z,23.10
2024-03-16T20:47:06.005Z,25.70
2024-03-16T20:49:32.691Z,24.30
2024-03-16T20:51:59.266Z,23.90
2024-03-16T20:54:26.803Z,24.90
2024-03-16T20:56:53.544Z,24.80
2024-03-16T20:59:20.141Z,25.10
2024-03-16T21:01:46.867Z,23.40
2024-03-16T21:04:13.516Z,24.20
2024-03-16T21:06:40.121Z,22.90
2024-03-16T21:09:07.453Z,22.70
2024-03-16T21:11:34.792Z,21.80
2024-03-16T21:14:01.447Z,23.40
2024-03-16T21:16:28.650Z,25.00
2024-03-16T21:18:55.897Z,25.50
2024-03-16T21:21:22.739Z,24.20
2024-03-16T21:23:50.169Z,23.70
2024-03-16T21:26:16.816Z,25.10
2024-03-16T21:28:43.478Z,26.80
2024-03-16T21:31:10.169Z,26.50
2024-03-16T21:33:39.246Z,26.60
2024-03-16T21:36:07.472Z,27.20
2024-03-16T21:38:34.298Z,23.90
2024-03-16T21:41:01.033Z,24.40
2024-03-16T21:43:27.555Z,23.60
2024-03-16T21:45:54.816Z,23.80
2024-03-16T21:48:22.216Z,25.00
2024-03-16T21:50:49.104Z,26.00
2024-03-16T21:53:15.659Z,25.40
2024-03-16T21:55:43.225Z,28.40
2024-03-16T21:58:10.074Z,26.40
2024-03-16T22:00:36.647Z,27.50
2024-03-16T22:03:03.406Z,26.10
2024-03-16T22:05:32.336Z,25.90
2024-03-16T22:08:03.886Z,26.70
2024-03-16T22:10:30.852Z,27.10
2024-03-16T22:12:57.496Z,28.50
2024-03-16T22:15:24.152Z,28.10
2024-03-16T22:17:51.911Z,24.30
2024-03-16T22:20:18.456Z,28.70
2024-03-16T22:22:51.703Z,26.80
2024-03-16T22:25:18.227Z,25.70
2024-03-16T22:27:46.681Z,30.20
2024-03-16T22:30:15.488Z,27.00
2024-03-16T22:32:43.451Z,26.90
2024-03-16T22:35:13.117Z,25.80
2024-03-16T22:37:39.701Z,24.60
2024-03-16T22:40:10.075Z,28.40
2024-03-16T22:42:43.135Z,25.90
2024-03-16T22:45:10.777Z,24.70
2024-03-16T22:47:37.225Z,27.40
2024-03-16T22:50:05.009Z,26.10
2024-03-16T22:52:32.493Z,29.70
2024-03-16T22:55:00.986Z,30.70
2024-03-16T22:57:29.188Z,29.20
2024-03-16T22:59:55.791Z,27.40
2024-03-16T23:02:22.408Z,28.70
2024-03-16T23:04:48.973Z,30.10
2024-03-16T23:07:15.492Z,27.50
2024-03-16T23:09:43.617Z,28.10
2024-03-16T23:12:10.217Z,29.30
2024-03-16T23:14:36.858Z,31.00
2024-03-16T23:17:04.451Z,32.60
2024-03-16T23:19:31.095Z,30.90
2024-03-16T23:21:57.964Z,29.80
2024-03-16T23:25:58.302Z,29.10
2024-03-16T23:28:27.392Z,31.30
2024-03-16T23:30:54.477Z,29.90
2024-03-16T23:33:21.408Z,32.60
2024-03-16T23:35:47.965Z,33.40
2024-03-16T23:38:14.635Z,28.70
2024-03-16T23:40:41.236Z,32.30
2024-03-16T23:43:10.547Z,33.90
2024-03-16T23:45:45.916Z,32.80
2024-03-16T23:48:12.463Z,34.90
2024-03-16T23:50:39.291Z,32.30
2024-03-16T23:53:05.831Z,34.40
2024-03-16T23:55:32.526Z,36.00
2024-03-16T23:57:59.597Z,34.60
